Nearby METAR Reports

 

KHQM - Hoquiam,WA, USA
Updated: 06/24/2019 12:53am
Overcast
Overcast
 Wind from WNW
Wind: WNW 8 mph , 13 km/h
Temperature: 54°F , 12°C
Dew Point: 54°F , 12°C
Humidity: 100%
Barometer: 30.14 inHg , 1020.7 hPa
Clouds: Overcast
Visibility: 8 miles , 13 km
Cloud details: Overcast 4400 ft
2019/06/24 07:53 KHQM 240753Z AUTO 30007KT 8SM OVC044 12/12 A3014 RMK AO2 SLP208 T01220117 401670117